Hauptseite
METAR-TAF:

METAR-TAF

Flughäfen :

Flughafen Chania

Chania, Kreta, Griechenland

Breite: 35-29N, Länge: 024-07E, Höhe: 146 m

Beobachtung

Neuester Wetterbericht von vor 39 Minuten, um 11:20 UTC
Wind 10 kt aus Ost/Nordost
Temperatur 17°C
Luftfeuchtigkeit 77%
Luftdruck 1018 hPa
Sichtweite 10 km oder mehr
Leicht bewölkt in der Höhe von 2000 ft

METAR: LGSA 201120Z 06010KT 9999 FEW020 17/13 Q1018

Zeit: 13:59 (11:59 UTC)

Prognose

Neuester Wetterbericht von vor 59 Minuten, um 11:00 UTC
Gültige Prognose vom 20 um 12 UTC bis 21 um 12 UTC
Wind 15 kt aus Ost
Sichtweite 10 km oder mehr
Leicht bewölkt in der Höhe von 2000 ft

TAF: LGSA 201100Z 2012/2112 08015KT 9999 FEW020

Wetterbeobachtungen und Prognosen von mehr als 4000 Flughäfen (METAR und TAF Bericht).

Die verfügbaren Stationen werden durch gelbe und rote Markierungen auf der Karte dargestellt.

Führen Sie die Maus auf sie, um den Namen der Station zu sehen.

Darauf klicken, um die Beobachtung von Wetterbeobachtungen und Prognosen zu sehen.

Um die Karte zu ändern : klicken Sie auf den grünen Tasten mit einem schwarzen Kreuz Zum Vergrößern, auf den grünen Button mit einem Gedankenstrich zu verkleinern, oder auf die grünen Pfeile für benachbarte Karten.


METAR-TAF: